createdAt,value
2018-09-04T00:02:28.577Z,18.55
2018-09-04T00:04:59.519Z,18.49
2018-09-04T00:07:30.476Z,18.46
2018-09-04T00:10:01.495Z,18.53
2018-09-04T00:12:32.524Z,18.52
2018-09-04T00:15:03.493Z,18.50
2018-09-04T00:17:34.497Z,18.45
2018-09-04T00:20:06.001Z,18.42
2018-09-04T00:22:37.234Z,18.35
2018-09-04T00:25:08.520Z,18.42
2018-09-04T00:27:40.381Z,18.42
2018-09-04T00:30:11.454Z,18.43
2018-09-04T00:32:42.488Z,18.29
2018-09-04T00:35:13.518Z,18.41
2018-09-04T00:37:44.518Z,18.46
2018-09-04T00:40:15.474Z,18.38
2018-09-04T00:42:46.521Z,18.41
2018-09-04T00:45:17.453Z,18.42
2018-09-04T00:47:48.485Z,18.39
2018-09-04T00:50:19.550Z,18.46
2018-09-04T00:52:50.521Z,18.40
2018-09-04T00:55:21.478Z,18.47
2018-09-04T00:57:52.492Z,18.37
2018-09-04T01:00:25.704Z,18.36
2018-09-04T01:02:57.425Z,18.42
2018-09-04T01:05:28.728Z,18.29
2018-09-04T01:07:59.573Z,18.39
2018-09-04T01:10:30.578Z,18.38
2018-09-04T01:13:01.525Z,18.39
2018-09-04T01:15:32.551Z,18.41
2018-09-04T01:18:03.545Z,18.37
2018-09-04T01:20:34.595Z,18.36
2018-09-04T01:23:06.020Z,18.40
2018-09-04T01:25:37.289Z,18.31
2018-09-04T01:28:09.506Z,18.38
2018-09-04T01:30:40.501Z,18.36
2018-09-04T01:33:11.505Z,18.49
2018-09-04T01:35:42.485Z,18.37
2018-09-04T01:38:13.549Z,18.29
2018-09-04T01:40:44.481Z,18.27
2018-09-04T01:43:15.455Z,18.28
2018-09-04T01:45:46.509Z,18.25
2018-09-04T01:48:17.525Z,18.17
2018-09-04T01:50:48.489Z,18.16
2018-09-04T01:53:19.532Z,18.14
2018-09-04T01:55:50.509Z,18.16
2018-09-04T01:58:21.516Z,18.05
2018-09-04T02:00:52.530Z,18.17
2018-09-04T02:03:23.508Z,18.12
2018-09-04T02:05:54.519Z,18.18
2018-09-04T02:08:25.622Z,18.18
2018-09-04T02:10:56.504Z,18.08
2018-09-04T02:13:27.526Z,18.22
2018-09-04T02:15:58.501Z,18.12
2018-09-04T02:18:29.497Z,18.13
2018-09-04T02:21:00.495Z,18.17
2018-09-04T02:23:31.462Z,18.11
2018-09-04T02:26:02.531Z,18.11
2018-09-04T02:28:33.554Z,18.18
2018-09-04T02:31:04.537Z,18.21
2018-09-04T02:33:35.526Z,18.32
2018-09-04T02:36:06.541Z,18.21
2018-09-04T02:38:37.510Z,18.12
2018-09-04T02:41:09.314Z,18.07
2018-09-04T02:43:40.553Z,18.13
2018-09-04T02:46:11.525Z,18.14
2018-09-04T02:48:42.482Z,18.13
2018-09-04T02:51:13.492Z,18.04
2018-09-04T02:53:44.490Z,18.05
2018-09-04T02:56:15.509Z,18.10
2018-09-04T02:58:46.549Z,18.07
2018-09-04T03:01:17.478Z,17.86
2018-09-04T03:03:48.510Z,17.83
2018-09-04T03:06:19.518Z,17.87
2018-09-04T03:08:50.503Z,17.88
2018-09-04T03:11:21.597Z,17.85
2018-09-04T03:13:52.526Z,17.82
2018-09-04T03:16:23.498Z,17.82
2018-09-04T03:18:54.494Z,17.87
2018-09-04T03:21:25.506Z,17.80
2018-09-04T03:23:56.501Z,17.79
2018-09-04T03:26:27.495Z,17.75
2018-09-04T03:28:58.505Z,17.79
2018-09-04T03:31:29.767Z,17.74
2018-09-04T03:34:00.593Z,17.77
2018-09-04T03:36:31.513Z,17.74
2018-09-04T03:39:02.559Z,17.85
2018-09-04T03:41:33.533Z,17.76
2018-09-04T03:44:04.517Z,17.76
2018-09-04T03:46:35.525Z,17.83
2018-09-04T03:49:07.279Z,17.90
2018-09-04T03:51:37.404Z,17.81
2018-09-04T03:54:08.632Z,17.77
2018-09-04T03:56:39.587Z,17.78
2018-09-04T03:59:10.510Z,17.79
2018-09-04T04:01:41.487Z,17.87
2018-09-04T04:04:12.528Z,17.75
2018-09-04T04:06:43.556Z,17.56
2018-09-04T04:09:14.521Z,17.56
2018-09-04T04:11:45.501Z,17.80
2018-09-04T04:14:16.524Z,17.82
2018-09-04T04:16:47.508Z,17.79
2018-09-04T04:19:18.525Z,17.81
2018-09-04T04:21:49.522Z,17.84
2018-09-04T04:24:20.497Z,17.90
2018-09-04T04:26:51.506Z,17.87
2018-09-04T04:29:22.505Z,17.91
2018-09-04T04:31:53.462Z,17.95
2018-09-04T04:34:24.495Z,17.99
2018-09-04T04:36:55.494Z,18.01
2018-09-04T04:39:26.498Z,18.06
2018-09-04T04:41:57.499Z,18.03
2018-09-04T04:44:28.565Z,18.06
2018-09-04T04:46:59.480Z,18.09
2018-09-04T04:49:30.582Z,17.85
2018-09-04T04:52:01.736Z,17.97
2018-09-04T04:54:32.580Z,18.10
2018-09-04T04:57:03.521Z,18.23
2018-09-04T04:59:34.491Z,18.23
2018-09-04T05:02:05.561Z,18.16
2018-09-04T05:04:36.489Z,18.12
2018-09-04T05:07:07.519Z,18.11
2018-09-04T05:09:38.526Z,18.02
2018-09-04T05:12:09.510Z,18.05
2018-09-04T05:14:40.566Z,17.96
2018-09-04T05:17:11.569Z,18.18
2018-09-04T05:19:42.518Z,18.11
2018-09-04T05:22:13.554Z,18.22
2018-09-04T05:24:44.503Z,18.19
2018-09-04T05:27:15.535Z,18.13
2018-09-04T05:29:46.596Z,18.15
2018-09-04T05:32:23.765Z,18.11
2018-09-04T05:34:54.601Z,18.09
2018-09-04T05:37:25.664Z,18.05
2018-09-04T05:39:56.513Z,18.14
2018-09-04T05:43:01.857Z,18.13
2018-09-04T05:45:33.493Z,18.05
2018-09-04T05:48:07.792Z,18.04
2018-09-04T05:50:38.695Z,17.97
2018-09-04T05:53:09.791Z,18.04
2018-09-04T05:55:40.601Z,18.26
2018-09-04T05:58:11.476Z,18.33
2018-09-04T06:00:48.330Z,18.25
2018-09-04T06:03:19.526Z,18.34
2018-09-04T06:05:50.493Z,18.44
2018-09-04T06:08:21.465Z,18.51
2018-09-04T06:10:52.498Z,18.47
2018-09-04T06:13:23.504Z,18.50
2018-09-04T06:15:54.626Z,18.69
2018-09-04T06:18:25.521Z,18.58
2018-09-04T06:20:56.561Z,18.59
2018-09-04T06:23:27.510Z,18.55
2018-09-04T06:25:58.509Z,18.53
2018-09-04T06:28:29.565Z,18.66
2018-09-04T06:31:00.515Z,18.76
2018-09-04T06:33:31.489Z,18.68
2018-09-04T06:36:02.498Z,18.63
2018-09-04T06:38:33.494Z,18.80
2018-09-04T06:41:04.521Z,18.54
2018-09-04T06:43:35.499Z,19.08
2018-09-04T06:46:06.553Z,19.12
2018-09-04T06:48:37.526Z,19.10
2018-09-04T06:51:08.465Z,19.33
2018-09-04T06:53:39.473Z,19.15
2018-09-04T06:56:10.482Z,19.22
2018-09-04T06:58:41.479Z,19.23
2018-09-04T07:01:12.482Z,19.30
2018-09-04T07:03:43.452Z,19.35
2018-09-04T07:06:14.525Z,19.27
2018-09-04T07:08:45.497Z,19.26
2018-09-04T07:11:16.541Z,19.36
2018-09-04T07:13:47.481Z,19.66
2018-09-04T07:16:18.523Z,19.63
2018-09-04T07:18:49.506Z,19.70
2018-09-04T07:21:20.500Z,19.72
2018-09-04T07:23:51.494Z,19.78
2018-09-04T07:26:22.569Z,20.15
2018-09-04T07:28:53.510Z,20.10
2018-09-04T07:31:24.513Z,20.09
2018-09-04T07:33:55.505Z,20.11
2018-09-04T07:36:26.604Z,20.35
2018-09-04T07:38:57.497Z,20.23
2018-09-04T07:41:28.502Z,20.60
2018-09-04T07:43:59.480Z,20.60
2018-09-04T07:46:30.493Z,20.84
2018-09-04T07:49:01.531Z,20.89
2018-09-04T07:51:32.577Z,20.69
2018-09-04T07:54:03.473Z,20.79
2018-09-04T07:56:34.550Z,20.83
2018-09-04T07:59:05.534Z,21.06
2018-09-04T08:01:36.557Z,21.10
2018-09-04T08:04:07.511Z,21.20
2018-09-04T08:06:39.554Z,21.11
2018-09-04T08:09:10.582Z,20.94
2018-09-04T08:11:41.519Z,20.85
2018-09-04T08:14:12.512Z,21.33
2018-09-04T08:16:43.483Z,21.07
2018-09-04T08:19:14.499Z,21.42
2018-09-04T08:21:45.485Z,21.35
2018-09-04T08:24:16.468Z,21.73
2018-09-04T08:26:47.453Z,21.90
2018-09-04T08:29:18.418Z,22.35
2018-09-04T08:31:49.453Z,22.78
2018-09-04T08:34:20.484Z,23.19
2018-09-04T08:36:51.520Z,23.70
2018-09-04T08:39:22.473Z,23.50
2018-09-04T08:41:53.486Z,23.56
2018-09-04T08:44:24.477Z,24.29
2018-09-04T08:46:55.526Z,24.00
2018-09-04T08:52:10.499Z,23.47
2018-09-04T08:54:41.476Z,23.71
2018-09-04T08:57:13.414Z,23.87
2018-09-04T08:59:44.485Z,24.32
2018-09-04T09:02:15.468Z,24.77
2018-09-04T09:04:46.511Z,24.91
2018-09-04T09:07:17.524Z,24.58
2018-09-04T09:09:48.554Z,24.83
2018-09-04T09:12:19.513Z,25.33
2018-09-04T09:14:50.493Z,25.27
2018-09-04T09:17:21.542Z,25.76
2018-09-04T09:19:52.505Z,25.42
2018-09-04T09:22:23.503Z,25.60
2018-09-04T09:24:54.493Z,26.18
2018-09-04T09:27:25.517Z,26.20
2018-09-04T09:29:57.382Z,26.62
2018-09-04T09:32:28.492Z,26.73
2018-09-04T09:34:59.501Z,26.79
2018-09-04T09:37:30.509Z,26.86
2018-09-04T09:40:01.514Z,26.26
2018-09-04T09:42:32.517Z,26.07
2018-09-04T09:45:03.513Z,26.59
2018-09-04T09:47:34.542Z,26.64
2018-09-04T09:50:05.525Z,26.91
2018-09-04T09:52:36.616Z,27.61
2018-09-04T09:55:08.662Z,26.92
2018-09-04T09:57:39.737Z,25.30
2018-09-04T10:00:15.772Z,26.26
2018-09-04T10:02:51.052Z,26.22
2018-09-04T10:05:22.367Z,25.92
2018-09-04T10:07:53.692Z,26.14
2018-09-04T10:10:24.493Z,25.95
2018-09-04T10:12:55.501Z,26.30
2018-09-04T10:15:26.521Z,25.42
2018-09-04T10:17:57.505Z,25.19
2018-09-04T10:20:28.520Z,25.40
2018-09-04T10:22:59.538Z,25.49
2018-09-04T10:25:30.543Z,25.14
2018-09-04T10:28:01.488Z,25.72
2018-09-04T10:30:32.537Z,25.57
2018-09-04T10:33:03.517Z,25.53
2018-09-04T10:35:34.509Z,24.94
2018-09-04T10:38:05.534Z,25.84
2018-09-04T10:40:41.473Z,26.41
2018-09-04T10:43:12.501Z,25.76
2018-09-04T10:45:48.772Z,25.56
2018-09-04T10:48:26.513Z,25.67
2018-09-04T10:50:57.489Z,25.46
2018-09-04T10:53:28.521Z,25.84
2018-09-04T10:55:59.517Z,25.91
2018-09-04T10:58:30.649Z,26.13
2018-09-04T11:01:01.924Z,25.65
2018-09-04T11:03:33.034Z,25.58
2018-09-04T11:06:04.297Z,25.91
2018-09-04T11:08:35.446Z,25.90
2018-09-04T11:11:06.507Z,25.86
2018-09-04T11:13:37.496Z,25.71
2018-09-04T11:16:08.489Z,25.88
2018-09-04T11:18:39.488Z,26.18
2018-09-04T11:21:10.444Z,26.11
2018-09-04T11:23:41.525Z,25.56
2018-09-04T11:26:12.489Z,26.66
2018-09-04T11:28:50.461Z,26.86
2018-09-04T11:31:22.408Z,27.23
2018-09-04T11:33:53.470Z,27.80
2018-09-04T11:36:24.718Z,27.66
2018-09-04T11:38:55.562Z,28.04
2018-09-04T11:41:26.647Z,27.90
2018-09-04T11:43:57.571Z,27.60
2018-09-04T11:46:28.514Z,27.67
2018-09-04T11:48:59.509Z,28.02
2018-09-04T11:51:30.514Z,28.23
2018-09-04T11:54:01.563Z,28.22
2018-09-04T11:56:36.353Z,28.42
2018-09-04T11:59:07.455Z,27.59
2018-09-04T12:01:40.843Z,28.60
2018-09-04T12:04:11.600Z,28.87
2018-09-04T12:06:42.590Z,29.20
2018-09-04T12:09:13.533Z,29.99
2018-09-04T12:11:48.378Z,28.94
2018-09-04T12:14:19.425Z,29.37
2018-09-04T12:16:50.641Z,29.87
2018-09-04T12:19:21.527Z,29.87
2018-09-04T12:21:52.475Z,29.70
2018-09-04T12:24:23.511Z,29.51
2018-09-04T12:26:54.505Z,28.97
2018-09-04T12:29:25.577Z,29.10
2018-09-04T12:31:56.505Z,29.84
2018-09-04T12:34:27.521Z,28.44
2018-09-04T12:36:58.561Z,29.53
2018-09-04T12:39:29.572Z,28.21
2018-09-04T12:42:00.568Z,30.06
2018-09-04T12:44:31.607Z,29.46
2018-09-04T12:47:02.665Z,29.15
2018-09-04T12:49:33.521Z,30.16
2018-09-04T12:52:04.558Z,30.24
2018-09-04T12:54:35.516Z,29.97
2018-09-04T12:57:06.484Z,30.18
2018-09-04T12:59:37.543Z,29.83
2018-09-04T13:02:08.527Z,29.90
2018-09-04T13:04:40.225Z,30.45
2018-09-04T13:07:56.481Z,29.04
2018-09-04T13:10:27.458Z,28.90
2018-09-04T13:12:58.523Z,30.24
2018-09-04T13:15:29.490Z,30.04
2018-09-04T13:18:00.514Z,30.72
2018-09-04T13:20:31.594Z,30.62
2018-09-04T13:23:02.497Z,30.21
2018-09-04T13:25:33.486Z,30.10
2018-09-04T13:28:05.329Z,30.12
2018-09-04T13:30:36.394Z,30.71
2018-09-04T13:33:08.019Z,29.20
2018-09-04T13:35:39.459Z,29.31
2018-09-04T13:38:11.475Z,30.68
2018-09-04T13:40:42.489Z,30.13
2018-09-04T13:43:13.461Z,30.41
2018-09-04T13:45:44.528Z,30.72
2018-09-04T13:48:15.510Z,30.01
2018-09-04T13:50:46.485Z,30.82
2018-09-04T13:53:17.757Z,30.17
2018-09-04T13:55:48.651Z,29.78
2018-09-04T13:58:19.513Z,29.84
2018-09-04T14:00:50.544Z,29.82
2018-09-04T14:03:21.527Z,29.72
2018-09-04T14:05:52.505Z,29.80
2018-09-04T14:08:23.533Z,29.47
2018-09-04T14:10:54.559Z,29.53
2018-09-04T14:13:29.784Z,29.66
2018-09-04T14:16:03.634Z,29.62
2018-09-04T14:18:35.204Z,30.04
2018-09-04T14:21:06.514Z,28.61
2018-09-04T14:23:37.493Z,28.69
2018-09-04T14:26:08.497Z,28.68
2018-09-04T14:28:40.967Z,29.08
2018-09-04T14:31:10.517Z,29.11
2018-09-04T14:33:41.598Z,28.10
2018-09-04T14:36:12.676Z,28.67
2018-09-04T14:41:09.611Z,28.26
2018-09-04T14:44:45.540Z,29.05
2018-09-04T14:47:16.521Z,28.97
2018-09-04T14:49:48.518Z,28.60
2018-09-04T14:52:19.502Z,28.23
2018-09-04T14:54:50.499Z,28.35
2018-09-04T14:57:21.517Z,28.73
2018-09-04T14:59:52.567Z,28.58
2018-09-04T15:02:23.496Z,28.94
2018-09-04T15:04:54.482Z,28.11
2018-09-04T15:07:25.517Z,28.22
2018-09-04T15:09:56.475Z,28.28
2018-09-04T15:12:27.493Z,27.78
2018-09-04T15:14:58.547Z,28.07
2018-09-04T15:17:29.585Z,28.08
2018-09-04T15:20:00.538Z,28.08
2018-09-04T15:22:31.828Z,27.91
2018-09-04T15:25:02.740Z,27.88
2018-09-04T15:27:33.677Z,27.97
2018-09-04T15:30:04.633Z,27.72
2018-09-04T15:32:35.675Z,27.39
2018-09-04T15:35:06.689Z,27.18
2018-09-04T15:37:37.832Z,27.60
2018-09-04T15:40:19.345Z,27.44
2018-09-04T15:42:51.346Z,27.68
2018-09-04T15:45:26.383Z,27.57
2018-09-04T15:48:00.712Z,27.60
2018-09-04T15:50:33.415Z,27.65
2018-09-04T15:53:05.672Z,27.11
2018-09-04T15:55:37.772Z,27.46
2018-09-04T15:58:09.485Z,27.21
2018-09-04T16:00:41.814Z,27.41
2018-09-04T16:03:14.076Z,27.44
2018-09-04T16:05:45.756Z,27.09
2018-09-04T16:08:17.321Z,27.13
2018-09-04T16:10:48.760Z,27.35
2018-09-04T16:15:59.630Z,27.10
2018-09-04T16:18:30.530Z,26.64
2018-09-04T16:21:01.499Z,26.91
2018-09-04T16:23:32.477Z,26.96
2018-09-04T16:26:03.488Z,26.76
2018-09-04T16:28:34.521Z,26.72
2018-09-04T16:31:05.633Z,26.68
2018-09-04T16:33:37.283Z,26.47
2018-09-04T16:36:08.435Z,26.40
2018-09-04T16:38:39.527Z,26.47
2018-09-04T16:41:10.555Z,26.48
2018-09-04T16:43:41.489Z,26.59
2018-09-04T16:46:12.489Z,26.32
2018-09-04T16:48:43.528Z,26.38
2018-09-04T16:51:14.489Z,26.13
2018-09-04T16:53:45.520Z,25.69
2018-09-04T16:56:16.520Z,25.20
2018-09-04T16:58:47.529Z,24.68
2018-09-04T17:01:18.493Z,24.66
2018-09-04T17:03:49.457Z,24.41
2018-09-04T17:06:20.514Z,24.06
2018-09-04T17:08:51.515Z,24.26
2018-09-04T17:11:22.518Z,23.83
2018-09-04T17:13:53.500Z,23.97
2018-09-04T17:16:24.505Z,24.02
2018-09-04T17:18:55.497Z,23.69
2018-09-04T17:21:26.506Z,23.73
2018-09-04T17:23:57.525Z,23.76
2018-09-04T17:26:28.488Z,23.64
2018-09-04T17:28:59.524Z,23.45
2018-09-04T17:31:30.545Z,23.36
2018-09-04T17:34:01.505Z,23.47
2018-09-04T17:36:32.501Z,23.35
2018-09-04T17:39:04.295Z,23.16
2018-09-04T17:41:35.337Z,23.04
2018-09-04T17:44:06.542Z,23.28
2018-09-04T17:46:37.520Z,23.31
2018-09-04T17:49:08.513Z,23.17
2018-09-04T17:51:39.673Z,22.88
2018-09-04T17:54:10.508Z,22.75
2018-09-04T17:56:41.472Z,22.85
2018-09-04T17:59:12.477Z,22.87
2018-09-04T18:01:43.464Z,22.86
2018-09-04T18:04:14.472Z,22.81
2018-09-04T18:06:45.466Z,22.80
2018-09-04T18:09:17.449Z,22.73
2018-09-04T18:11:48.469Z,22.95
2018-09-04T18:14:19.517Z,23.07
2018-09-04T18:16:50.502Z,23.03
2018-09-04T18:19:21.741Z,23.11
2018-09-04T18:21:52.569Z,23.08
2018-09-04T18:24:23.504Z,23.08
2018-09-04T18:26:54.487Z,23.16
2018-09-04T18:29:25.548Z,23.17
2018-09-04T18:31:56.586Z,23.18
2018-09-04T18:34:27.524Z,23.17
2018-09-04T18:36:59.009Z,23.16
2018-09-04T18:39:30.282Z,23.18
2018-09-04T18:42:01.451Z,23.15
2018-09-04T18:44:32.542Z,23.07
2018-09-04T18:47:03.514Z,23.01
2018-09-04T18:49:34.521Z,23.04
2018-09-04T18:52:05.533Z,23.08
2018-09-04T18:54:36.572Z,23.14
2018-09-04T18:57:07.501Z,23.04
2018-09-04T18:59:38.695Z,23.10
2018-09-04T19:02:10.198Z,23.01
2018-09-04T19:04:41.372Z,23.05
2018-09-04T19:07:12.529Z,23.00
2018-09-04T19:09:43.462Z,22.82
2018-09-04T19:12:14.443Z,22.89
2018-09-04T19:14:45.470Z,22.94
2018-09-04T19:17:16.497Z,22.88
2018-09-04T19:19:47.530Z,22.93
2018-09-04T19:22:18.732Z,23.00
2018-09-04T19:24:49.549Z,23.00
2018-09-04T19:27:20.486Z,22.93
2018-09-04T19:29:51.454Z,22.95
2018-09-04T19:32:22.494Z,22.95
2018-09-04T19:34:53.463Z,22.83
2018-09-04T19:37:24.509Z,22.78
2018-09-04T19:39:55.507Z,22.67
2018-09-04T19:42:26.489Z,22.51
2018-09-04T19:44:57.633Z,22.44
2018-09-04T19:47:28.498Z,22.44
2018-09-04T19:50:57.315Z,22.48
2018-09-04T19:53:28.355Z,22.53
2018-09-04T19:55:59.389Z,22.52
2018-09-04T19:58:30.481Z,22.40
2018-09-04T20:01:01.528Z,22.35
2018-09-04T20:03:32.486Z,22.27
2018-09-04T20:06:03.488Z,22.33
2018-09-04T20:08:34.459Z,22.37
2018-09-04T20:11:05.461Z,22.24
2018-09-04T20:13:36.492Z,22.42
2018-09-04T20:16:07.506Z,22.24
2018-09-04T20:18:38.775Z,22.16
2018-09-04T20:21:09.574Z,22.01
2018-09-04T20:23:40.485Z,21.96
2018-09-04T20:26:11.445Z,22.04
2018-09-04T20:28:42.488Z,22.08
2018-09-04T20:31:13.516Z,21.92
2018-09-04T20:33:44.469Z,21.96
2018-09-04T20:36:15.479Z,21.86
2018-09-04T20:38:47.369Z,21.77
2018-09-04T20:41:18.840Z,21.71
2018-09-04T20:43:49.576Z,21.71
2018-09-04T20:46:20.477Z,21.39
2018-09-04T20:48:51.445Z,21.64
2018-09-04T20:51:22.446Z,21.45
2018-09-04T20:53:53.440Z,21.12
2018-09-04T20:56:24.445Z,21.07
2018-09-04T20:59:18.355Z,20.95
2018-09-04T21:02:12.457Z,21.07
2018-09-04T21:05:06.403Z,21.16
2018-09-04T21:09:01.384Z,20.98
2018-09-04T21:11:32.536Z,20.82
2018-09-04T21:16:47.529Z,20.81
2018-09-04T21:19:18.476Z,20.48
2018-09-04T21:21:49.562Z,20.38
2018-09-04T21:24:20.473Z,20.43
2018-09-04T21:26:51.480Z,20.56
2018-09-04T21:29:23.181Z,20.57
2018-09-04T21:31:54.342Z,20.50
2018-09-04T21:34:25.360Z,20.57
2018-09-04T21:36:56.574Z,20.42
2018-09-04T21:39:27.468Z,20.51
2018-09-04T21:41:58.488Z,20.61
2018-09-04T21:44:29.477Z,20.48
2018-09-04T21:47:00.489Z,20.42
2018-09-04T21:49:32.370Z,20.57
2018-09-04T21:52:03.493Z,20.54
2018-09-04T21:54:34.473Z,20.68
2018-09-04T21:57:05.529Z,20.55
2018-09-04T21:59:36.489Z,20.58
2018-09-04T22:02:07.570Z,20.60
2018-09-04T22:04:38.484Z,20.61
2018-09-04T22:07:09.561Z,20.61
2018-09-04T22:09:40.517Z,20.65
2018-09-04T22:12:12.434Z,20.64
2018-09-04T22:14:43.484Z,20.60
2018-09-04T22:17:14.501Z,20.50
2018-09-04T22:19:45.444Z,20.47
2018-09-04T22:22:16.446Z,20.47
2018-09-04T22:24:47.445Z,20.42
2018-09-04T22:27:18.525Z,20.19
2018-09-04T22:29:49.477Z,20.21
2018-09-04T22:32:20.477Z,20.20
2018-09-04T22:34:51.490Z,20.20
2018-09-04T22:37:22.533Z,20.19
2018-09-04T22:39:53.493Z,20.24
2018-09-04T22:42:24.485Z,20.28
2018-09-04T22:44:55.481Z,20.20
2018-09-04T22:47:26.477Z,20.13
2018-09-04T22:50:02.773Z,20.08
2018-09-04T22:52:33.592Z,20.13
2018-09-04T22:55:07.401Z,20.12
2018-09-04T22:57:38.514Z,19.95
2018-09-04T23:00:09.590Z,19.87
2018-09-04T23:02:40.494Z,19.81
2018-09-04T23:05:11.669Z,19.81
2018-09-04T23:07:42.474Z,19.66
2018-09-04T23:10:13.448Z,19.66
2018-09-04T23:12:44.473Z,19.63
2018-09-04T23:15:16.361Z,19.62
2018-09-04T23:17:47.696Z,19.60
2018-09-04T23:20:18.562Z,19.48
2018-09-04T23:22:49.512Z,19.53
2018-09-04T23:25:20.528Z,19.65
2018-09-04T23:27:51.473Z,19.55
2018-09-04T23:30:22.504Z,19.55
2018-09-04T23:32:53.480Z,19.53
2018-09-04T23:35:24.499Z,19.59
2018-09-04T23:37:55.495Z,19.56
2018-09-04T23:40:26.461Z,19.57
2018-09-04T23:42:57.716Z,19.56
2018-09-04T23:45:28.556Z,19.55
2018-09-04T23:47:59.496Z,19.56
2018-09-04T23:50:31.645Z,19.53
2018-09-04T23:53:02.507Z,19.54
2018-09-04T23:55:33.479Z,19.59
2018-09-04T23:58:04.485Z,19.51
